sensor_id;sensor_type;location;lat;lon;timestamp;temperature;humidity
4002;DHT22;2015;48.670;9.060;2023-12-28T00:01:38;4.50;99.90
4002;DHT22;2015;48.670;9.060;2023-12-28T00:04:10;4.40;99.90
4002;DHT22;2015;48.670;9.060;2023-12-28T00:06:42;4.20;99.90
4002;DHT22;2015;48.670;9.060;2023-12-28T00:09:14;4.20;99.90
4002;DHT22;2015;48.670;9.060;2023-12-28T00:11:46;4.10;99.90
4002;DHT22;2015;48.670;9.060;2023-12-28T00:14:18;4.00;99.90
4002;DHT22;2015;48.670;9.060;2023-12-28T00:16:50;3.90;99.90
4002;DHT22;2015;48.670;9.060;2023-12-28T00:19:21;3.90;99.90
4002;DHT22;2015;48.670;9.060;2023-12-28T00:21:53;3.90;99.90
4002;DHT22;2015;48.670;9.060;2023-12-28T00:24:25;3.80;99.90
4002;DHT22;2015;48.670;9.060;2023-12-28T00:26:57;3.80;99.90
4002;DHT22;2015;48.670;9.060;2023-12-28T00:29:29;3.70;99.90
4002;DHT22;2015;48.670;9.060;2023-12-28T00:32:01;3.60;99.90
4002;DHT22;2015;48.670;9.060;2023-12-28T00:34:32;3.60;99.90
4002;DHT22;2015;48.670;9.060;2023-12-28T00:37:04;3.60;99.90
4002;DHT22;2015;48.670;9.060;2023-12-28T00:39:36;3.50;99.90
4002;DHT22;2015;48.670;9.060;2023-12-28T00:42:09;3.50;99.90
4002;DHT22;2015;48.670;9.060;2023-12-28T00:44:41;3.40;99.90
4002;DHT22;2015;48.670;9.060;2023-12-28T00:47:13;3.40;99.90
4002;DHT22;2015;48.670;9.060;2023-12-28T00:49:45;3.30;99.90
4002;DHT22;2015;48.670;9.060;2023-12-28T00:52:17;3.30;99.90
4002;DHT22;2015;48.670;9.060;2023-12-28T00:54:48;3.20;99.90
4002;DHT22;2015;48.670;9.060;2023-12-28T00:57:20;3.20;99.90
4002;DHT22;2015;48.670;9.060;2023-12-28T00:59:52;3.20;99.90
4002;DHT22;2015;48.670;9.060;2023-12-28T01:02:24;3.20;99.90
4002;DHT22;2015;48.670;9.060;2023-12-28T01:04:56;3.20;99.90
4002;DHT22;2015;48.670;9.060;2023-12-28T01:07:28;3.20;99.90
4002;DHT22;2015;48.670;9.060;2023-12-28T01:09:59;3.10;99.90
4002;DHT22;2015;48.670;9.060;2023-12-28T01:12:31;3.10;99.90
4002;DHT22;2015;48.670;9.060;2023-12-28T01:15:03;3.10;99.90
4002;DHT22;2015;48.670;9.060;2023-12-28T01:17:35;3.10;99.90
4002;DHT22;2015;48.670;9.060;2023-12-28T01:20:08;3.10;99.90
4002;DHT22;2015;48.670;9.060;2023-12-28T01:22:39;3.10;99.90
4002;DHT22;2015;48.670;9.060;2023-12-28T01:25:11;3.10;99.90
4002;DHT22;2015;48.670;9.060;2023-12-28T01:27:43;3.10;99.90
4002;DHT22;2015;48.670;9.060;2023-12-28T01:30:15;3.00;99.90
4002;DHT22;2015;48.670;9.060;2023-12-28T01:32:47;3.00;99.90
4002;DHT22;2015;48.670;9.060;2023-12-28T01:35:19;3.00;99.90
4002;DHT22;2015;48.670;9.060;2023-12-28T01:37:50;2.90;99.90
4002;DHT22;2015;48.670;9.060;2023-12-28T01:40:22;2.90;99.90
4002;DHT22;2015;48.670;9.060;2023-12-28T01:42:54;2.90;99.90
4002;DHT22;2015;48.670;9.060;2023-12-28T01:45:26;2.90;99.90
4002;DHT22;2015;48.670;9.060;2023-12-28T01:47:59;2.80;99.90
4002;DHT22;2015;48.670;9.060;2023-12-28T01:50:32;2.80;99.90
4002;DHT22;2015;48.670;9.060;2023-12-28T01:53:04;2.80;99.90
4002;DHT22;2015;48.670;9.060;2023-12-28T01:55:36;2.80;99.90
4002;DHT22;2015;48.670;9.060;2023-12-28T01:58:08;2.80;99.90
4002;DHT22;2015;48.670;9.060;2023-12-28T02:00:40;2.80;99.90
4002;DHT22;2015;48.670;9.060;2023-12-28T02:03:14;2.80;99.90
4002;DHT22;2015;48.670;9.060;2023-12-28T02:05:46;2.80;99.90
4002;DHT22;2015;48.670;9.060;2023-12-28T02:08:18;2.80;99.90
4002;DHT22;2015;48.670;9.060;2023-12-28T02:10:50;2.70;99.90
4002;DHT22;2015;48.670;9.060;2023-12-28T02:13:22;2.70;99.90
4002;DHT22;2015;48.670;9.060;2023-12-28T02:16:13;2.70;99.90
4002;DHT22;2015;48.670;9.060;2023-12-28T02:18:50;2.80;99.90
4002;DHT22;2015;48.670;9.060;2023-12-28T02:21:23;2.80;99.90
4002;DHT22;2015;48.670;9.060;2023-12-28T02:23:56;2.80;99.90
4002;DHT22;2015;48.670;9.060;2023-12-28T02:26:28;2.70;99.90
4002;DHT22;2015;48.670;9.060;2023-12-28T02:29:00;2.70;99.90
4002;DHT22;2015;48.670;9.060;2023-12-28T02:31:45;2.70;99.90
4002;DHT22;2015;48.670;9.060;2023-12-28T02:34:28;2.60;99.90
4002;DHT22;2015;48.670;9.060;2023-12-28T02:37:01;2.60;99.90
4002;DHT22;2015;48.670;9.060;2023-12-28T02:39:35;2.60;99.90
4002;DHT22;2015;48.670;9.060;2023-12-28T02:42:07;2.50;99.90
4002;DHT22;2015;48.670;9.060;2023-12-28T02:44:39;2.50;99.90
4002;DHT22;2015;48.670;9.060;2023-12-28T02:47:11;2.50;99.90
4002;DHT22;2015;48.670;9.060;2023-12-28T02:49:43;2.50;99.90
4002;DHT22;2015;48.670;9.060;2023-12-28T02:52:15;2.50;99.90
4002;DHT22;2015;48.670;9.060;2023-12-28T02:54:46;2.50;99.90
4002;DHT22;2015;48.670;9.060;2023-12-28T02:57:18;2.50;99.90
4002;DHT22;2015;48.670;9.060;2023-12-28T02:59:50;2.50;99.90
4002;DHT22;2015;48.670;9.060;2023-12-28T03:02:22;2.50;99.90
4002;DHT22;2015;48.670;9.060;2023-12-28T03:04:54;2.60;99.90
4002;DHT22;2015;48.670;9.060;2023-12-28T03:07:27;2.60;99.90
4002;DHT22;2015;48.670;9.060;2023-12-28T03:09:58;2.60;99.90
4002;DHT22;2015;48.670;9.060;2023-12-28T03:12:31;2.60;99.90
4002;DHT22;2015;48.670;9.060;2023-12-28T03:15:03;2.60;99.90
4002;DHT22;2015;48.670;9.060;2023-12-28T03:17:35;2.60;99.90
4002;DHT22;2015;48.670;9.060;2023-12-28T03:20:09;2.60;99.90
4002;DHT22;2015;48.670;9.060;2023-12-28T03:22:41;2.60;99.90
4002;DHT22;2015;48.670;9.060;2023-12-28T03:25:14;2.60;99.90
4002;DHT22;2015;48.670;9.060;2023-12-28T03:27:46;2.60;99.90
4002;DHT22;2015;48.670;9.060;2023-12-28T03:30:17;2.70;99.90
4002;DHT22;2015;48.670;9.060;2023-12-28T03:32:49;2.70;99.90
4002;DHT22;2015;48.670;9.060;2023-12-28T03:35:21;2.70;99.90
4002;DHT22;2015;48.670;9.060;2023-12-28T03:37:53;2.70;99.90
4002;DHT22;2015;48.670;9.060;2023-12-28T03:40:25;2.70;99.90
4002;DHT22;2015;48.670;9.060;2023-12-28T03:42:57;2.70;99.90
4002;DHT22;2015;48.670;9.060;2023-12-28T03:45:28;2.80;99.90
4002;DHT22;2015;48.670;9.060;2023-12-28T03:48:00;2.80;99.90
4002;DHT22;2015;48.670;9.060;2023-12-28T03:50:34;2.90;99.90
4002;DHT22;2015;48.670;9.060;2023-12-28T03:53:06;3.00;99.90
4002;DHT22;2015;48.670;9.060;2023-12-28T03:55:38;3.20;99.90
4002;DHT22;2015;48.670;9.060;2023-12-28T03:58:10;3.30;99.90
4002;DHT22;2015;48.670;9.060;2023-12-28T04:00:42;3.60;99.90
4002;DHT22;2015;48.670;9.060;2023-12-28T04:03:14;3.80;99.90
4002;DHT22;2015;48.670;9.060;2023-12-28T04:05:46;3.90;99.90
4002;DHT22;2015;48.670;9.060;2023-12-28T04:08:18;3.90;99.90
4002;DHT22;2015;48.670;9.060;2023-12-28T04:10:50;3.90;99.90
4002;DHT22;2015;48.670;9.060;2023-12-28T04:13:22;3.90;99.90
4002;DHT22;2015;48.670;9.060;2023-12-28T04:15:53;3.80;99.90
4002;DHT22;2015;48.670;9.060;2023-12-28T04:18:25;3.80;99.90
4002;DHT22;2015;48.670;9.060;2023-12-28T04:20:57;3.70;99.90
4002;DHT22;2015;48.670;9.060;2023-12-28T04:23:29;3.60;99.90
4002;DHT22;2015;48.670;9.060;2023-12-28T04:26:01;3.60;99.90
4002;DHT22;2015;48.670;9.060;2023-12-28T04:28:33;3.50;99.90
4002;DHT22;2015;48.670;9.060;2023-12-28T04:31:07;3.50;99.90
4002;DHT22;2015;48.670;9.060;2023-12-28T04:33:40;3.50;99.90
4002;DHT22;2015;48.670;9.060;2023-12-28T04:36:12;3.50;99.90
4002;DHT22;2015;48.670;9.060;2023-12-28T04:38:44;3.50;99.90
4002;DHT22;2015;48.670;9.060;2023-12-28T04:41:15;3.50;99.90
4002;DHT22;2015;48.670;9.060;2023-12-28T04:43:47;3.60;99.90
4002;DHT22;2015;48.670;9.060;2023-12-28T04:46:19;3.60;99.90
4002;DHT22;2015;48.670;9.060;2023-12-28T04:48:51;3.70;99.90
4002;DHT22;2015;48.670;9.060;2023-12-28T04:51:23;3.90;99.90
4002;DHT22;2015;48.670;9.060;2023-12-28T04:53:54;4.00;99.90
4002;DHT22;2015;48.670;9.060;2023-12-28T04:56:26;4.10;99.90
4002;DHT22;2015;48.670;9.060;2023-12-28T04:58:58;4.30;99.90
4002;DHT22;2015;48.670;9.060;2023-12-28T05:01:30;4.60;99.90
4002;DHT22;2015;48.670;9.060;2023-12-28T05:04:04;4.60;99.90
4002;DHT22;2015;48.670;9.060;2023-12-28T05:06:36;4.60;99.90
4002;DHT22;2015;48.670;9.060;2023-12-28T05:09:08;4.50;99.90
4002;DHT22;2015;48.670;9.060;2023-12-28T05:11:40;4.50;99.90
4002;DHT22;2015;48.670;9.060;2023-12-28T05:14:12;4.40;99.90
4002;DHT22;2015;48.670;9.060;2023-12-28T05:16:44;4.70;99.90
4002;DHT22;2015;48.670;9.060;2023-12-28T05:19:16;4.90;99.90
4002;DHT22;2015;48.670;9.060;2023-12-28T05:21:47;5.10;99.90
4002;DHT22;2015;48.670;9.060;2023-12-28T05:24:19;5.20;99.90
4002;DHT22;2015;48.670;9.060;2023-12-28T05:26:51;5.40;99.90
4002;DHT22;2015;48.670;9.060;2023-12-28T05:29:23;5.50;99.90
4002;DHT22;2015;48.670;9.060;2023-12-28T05:31:54;5.90;99.90
4002;DHT22;2015;48.670;9.060;2023-12-28T05:34:26;6.30;99.90
4002;DHT22;2015;48.670;9.060;2023-12-28T05:36:58;6.50;99.90
4002;DHT22;2015;48.670;9.060;2023-12-28T05:39:30;6.80;99.90
4002;DHT22;2015;48.670;9.060;2023-12-28T05:42:02;6.70;99.90
4002;DHT22;2015;48.670;9.060;2023-12-28T05:44:34;6.50;99.90
4002;DHT22;2015;48.670;9.060;2023-12-28T05:47:06;6.50;99.90
4002;DHT22;2015;48.670;9.060;2023-12-28T05:49:38;6.60;99.90
4002;DHT22;2015;48.670;9.060;2023-12-28T05:52:10;6.70;99.90
4002;DHT22;2015;48.670;9.060;2023-12-28T05:54:42;6.60;99.90
4002;DHT22;2015;48.670;9.060;2023-12-28T05:57:15;6.30;99.90
4002;DHT22;2015;48.670;9.060;2023-12-28T05:59:47;6.10;99.90
4002;DHT22;2015;48.670;9.060;2023-12-28T06:02:19;5.80;99.90
4002;DHT22;2015;48.670;9.060;2023-12-28T06:04:51;5.60;99.90
4002;DHT22;2015;48.670;9.060;2023-12-28T06:07:23;5.50;99.90
4002;DHT22;2015;48.670;9.060;2023-12-28T06:09:55;5.50;99.90
4002;DHT22;2015;48.670;9.060;2023-12-28T06:12:27;5.40;99.90
4002;DHT22;2015;48.670;9.060;2023-12-28T06:14:59;5.50;99.90
4002;DHT22;2015;48.670;9.060;2023-12-28T06:17:30;5.60;99.90
4002;DHT22;2015;48.670;9.060;2023-12-28T06:20:06;5.50;99.90
4002;DHT22;2015;48.670;9.060;2023-12-28T06:22:38;5.80;99.90
4002;DHT22;2015;48.670;9.060;2023-12-28T06:25:11;5.90;99.90
4002;DHT22;2015;48.670;9.060;2023-12-28T06:27:43;6.00;99.90
4002;DHT22;2015;48.670;9.060;2023-12-28T06:30:15;6.00;99.90
4002;DHT22;2015;48.670;9.060;2023-12-28T06:32:47;6.00;99.90
4002;DHT22;2015;48.670;9.060;2023-12-28T06:35:19;5.90;99.90
4002;DHT22;2015;48.670;9.060;2023-12-28T06:37:51;5.90;99.90
4002;DHT22;2015;48.670;9.060;2023-12-28T06:40:23;5.80;99.90
4002;DHT22;2015;48.670;9.060;2023-12-28T06:42:54;5.70;99.90
4002;DHT22;2015;48.670;9.060;2023-12-28T06:45:26;5.60;99.90
4002;DHT22;2015;48.670;9.060;2023-12-28T06:48:00;5.60;99.90
4002;DHT22;2015;48.670;9.060;2023-12-28T06:50:32;5.50;99.90
4002;DHT22;2015;48.670;9.060;2023-12-28T06:53:04;5.60;99.90
4002;DHT22;2015;48.670;9.060;2023-12-28T06:55:36;5.50;99.90
4002;DHT22;2015;48.670;9.060;2023-12-28T06:58:08;5.60;99.90
4002;DHT22;2015;48.670;9.060;2023-12-28T07:00:39;5.60;99.90
4002;DHT22;2015;48.670;9.060;2023-12-28T07:03:13;5.60;99.90
4002;DHT22;2015;48.670;9.060;2023-12-28T07:05:45;5.60;99.90
4002;DHT22;2015;48.670;9.060;2023-12-28T07:08:16;5.70;99.90
4002;DHT22;2015;48.670;9.060;2023-12-28T07:10:48;5.70;99.90
4002;DHT22;2015;48.670;9.060;2023-12-28T07:13:20;5.80;99.90
4002;DHT22;2015;48.670;9.060;2023-12-28T07:15:51;5.90;99.90
4002;DHT22;2015;48.670;9.060;2023-12-28T07:18:26;5.90;99.90
4002;DHT22;2015;48.670;9.060;2023-12-28T07:20:59;5.90;99.90
4002;DHT22;2015;48.670;9.060;2023-12-28T07:23:31;6.00;99.90
4002;DHT22;2015;48.670;9.060;2023-12-28T07:26:03;6.10;99.90
4002;DHT22;2015;48.670;9.060;2023-12-28T07:28:35;6.10;99.90
4002;DHT22;2015;48.670;9.060;2023-12-28T07:31:07;6.20;99.90
4002;DHT22;2015;48.670;9.060;2023-12-28T07:33:39;6.20;99.90
4002;DHT22;2015;48.670;9.060;2023-12-28T07:36:11;6.20;99.90
4002;DHT22;2015;48.670;9.060;2023-12-28T07:38:43;6.30;99.90
4002;DHT22;2015;48.670;9.060;2023-12-28T07:41:15;6.40;99.90
4002;DHT22;2015;48.670;9.060;2023-12-28T07:43:47;6.70;99.90
4002;DHT22;2015;48.670;9.060;2023-12-28T07:46:19;6.80;99.90
4002;DHT22;2015;48.670;9.060;2023-12-28T07:48:52;7.30;99.90
4002;DHT22;2015;48.670;9.060;2023-12-28T07:51:24;7.70;99.90
4002;DHT22;2015;48.670;9.060;2023-12-28T07:53:56;7.80;99.90
4002;DHT22;2015;48.670;9.060;2023-12-28T07:56:28;8.10;99.90
4002;DHT22;2015;48.670;9.060;2023-12-28T07:58:59;8.40;99.90
4002;DHT22;2015;48.670;9.060;2023-12-28T08:01:31;8.70;99.90
4002;DHT22;2015;48.670;9.060;2023-12-28T08:04:04;9.00;99.90
4002;DHT22;2015;48.670;9.060;2023-12-28T08:06:36;9.00;99.90
4002;DHT22;2015;48.670;9.060;2023-12-28T08:09:08;9.10;99.90
4002;DHT22;2015;48.670;9.060;2023-12-28T08:11:40;9.20;99.90
4002;DHT22;2015;48.670;9.060;2023-12-28T08:14:12;9.30;99.90
4002;DHT22;2015;48.670;9.060;2023-12-28T08:16:44;9.30;99.90
4002;DHT22;2015;48.670;9.060;2023-12-28T08:19:16;9.20;99.90
4002;DHT22;2015;48.670;9.060;2023-12-28T08:21:47;9.10;99.90
4002;DHT22;2015;48.670;9.060;2023-12-28T08:24:19;9.10;99.90
4002;DHT22;2015;48.670;9.060;2023-12-28T08:26:51;9.20;99.90
4002;DHT22;2015;48.670;9.060;2023-12-28T08:29:24;9.20;99.90
4002;DHT22;2015;48.670;9.060;2023-12-28T08:31:56;9.20;99.90
4002;DHT22;2015;48.670;9.060;2023-12-28T08:34:28;9.20;99.90
4002;DHT22;2015;48.670;9.060;2023-12-28T08:37:00;9.10;99.90
4002;DHT22;2015;48.670;9.060;2023-12-28T08:39:32;9.20;99.90
4002;DHT22;2015;48.670;9.060;2023-12-28T08:42:04;9.20;99.90
4002;DHT22;2015;48.670;9.060;2023-12-28T08:44:36;9.20;99.90
4002;DHT22;2015;48.670;9.060;2023-12-28T08:47:08;9.30;99.90
4002;DHT22;2015;48.670;9.060;2023-12-28T08:49:40;9.30;99.90
4002;DHT22;2015;48.670;9.060;2023-12-28T08:52:13;9.30;99.90
4002;DHT22;2015;48.670;9.060;2023-12-28T08:54:45;9.30;99.90
4002;DHT22;2015;48.670;9.060;2023-12-28T08:57:17;9.20;99.90
4002;DHT22;2015;48.670;9.060;2023-12-28T09:00:06;9.20;99.90
4002;DHT22;2015;48.670;9.060;2023-12-28T09:02:38;9.10;99.90
4002;DHT22;2015;48.670;9.060;2023-12-28T09:05:10;9.10;99.90
4002;DHT22;2015;48.670;9.060;2023-12-28T09:07:42;9.20;99.90
4002;DHT22;2015;48.670;9.060;2023-12-28T09:10:15;9.20;99.90
4002;DHT22;2015;48.670;9.060;2023-12-28T09:12:47;9.20;99.90
4002;DHT22;2015;48.670;9.060;2023-12-28T09:15:19;9.20;99.90
4002;DHT22;2015;48.670;9.060;2023-12-28T09:17:51;9.30;99.90
4002;DHT22;2015;48.670;9.060;2023-12-28T09:20:23;9.50;99.90
4002;DHT22;2015;48.670;9.060;2023-12-28T09:22:55;9.50;99.90
4002;DHT22;2015;48.670;9.060;2023-12-28T09:25:28;9.60;99.90
4002;DHT22;2015;48.670;9.060;2023-12-28T09:27:59;9.70;99.90
4002;DHT22;2015;48.670;9.060;2023-12-28T09:30:31;9.60;99.90
4002;DHT22;2015;48.670;9.060;2023-12-28T09:33:05;9.60;99.90
4002;DHT22;2015;48.670;9.060;2023-12-28T09:35:37;9.60;99.90
4002;DHT22;2015;48.670;9.060;2023-12-28T09:38:09;9.60;99.90
4002;DHT22;2015;48.670;9.060;2023-12-28T09:40:44;9.70;99.90
4002;DHT22;2015;48.670;9.060;2023-12-28T09:43:26;9.70;99.90
4002;DHT22;2015;48.670;9.060;2023-12-28T09:45:58;9.70;99.90
4002;DHT22;2015;48.670;9.060;2023-12-28T09:48:31;9.70;99.90
4002;DHT22;2015;48.670;9.060;2023-12-28T09:51:04;9.70;99.90
4002;DHT22;2015;48.670;9.060;2023-12-28T09:53:36;9.70;99.90
4002;DHT22;2015;48.670;9.060;2023-12-28T09:56:08;9.80;99.90
4002;DHT22;2015;48.670;9.060;2023-12-28T09:58:42;9.80;99.90
4002;DHT22;2015;48.670;9.060;2023-12-28T10:01:16;9.80;99.90
4002;DHT22;2015;48.670;9.060;2023-12-28T10:03:48;9.90;99.90
4002;DHT22;2015;48.670;9.060;2023-12-28T10:06:20;9.90;99.90
4002;DHT22;2015;48.670;9.060;2023-12-28T10:08:53;10.00;99.90
4002;DHT22;2015;48.670;9.060;2023-12-28T10:11:25;10.00;99.90
4002;DHT22;2015;48.670;9.060;2023-12-28T10:13:58;10.00;99.90
4002;DHT22;2015;48.670;9.060;2023-12-28T10:16:30;9.90;99.90
4002;DHT22;2015;48.670;9.060;2023-12-28T10:19:02;9.90;99.90
4002;DHT22;2015;48.670;9.060;2023-12-28T10:21:35;9.90;99.90
4002;DHT22;2015;48.670;9.060;2023-12-28T10:24:10;10.00;99.90
4002;DHT22;2015;48.670;9.060;2023-12-28T10:26:42;10.00;99.90
4002;DHT22;2015;48.670;9.060;2023-12-28T10:29:14;10.10;99.90
4002;DHT22;2015;48.670;9.060;2023-12-28T10:31:46;10.00;99.90
4002;DHT22;2015;48.670;9.060;2023-12-28T10:34:22;10.00;99.90
4002;DHT22;2015;48.670;9.060;2023-12-28T10:36:58;9.90;99.90
4002;DHT22;2015;48.670;9.060;2023-12-28T10:39:32;10.00;99.90
4002;DHT22;2015;48.670;9.060;2023-12-28T10:42:09;10.00;99.90
4002;DHT22;2015;48.670;9.060;2023-12-28T10:44:44;10.00;99.90
4002;DHT22;2015;48.670;9.060;2023-12-28T10:47:18;10.00;99.90
4002;DHT22;2015;48.670;9.060;2023-12-28T10:49:53;10.10;99.90
4002;DHT22;2015;48.670;9.060;2023-12-28T10:52:29;10.20;99.90
4002;DHT22;2015;48.670;9.060;2023-12-28T10:55:17;10.20;99.90
4002;DHT22;2015;48.670;9.060;2023-12-28T11:00:28;10.30;99.90
4002;DHT22;2015;48.670;9.060;2023-12-28T11:03:03;10.30;99.90
4002;DHT22;2015;48.670;9.060;2023-12-28T11:05:35;10.30;99.90
4002;DHT22;2015;48.670;9.060;2023-12-28T11:08:09;10.30;99.90
4002;DHT22;2015;48.670;9.060;2023-12-28T11:10:42;10.30;99.90
4002;DHT22;2015;48.670;9.060;2023-12-28T11:13:13;10.30;99.90
4002;DHT22;2015;48.670;9.060;2023-12-28T11:15:47;10.30;99.90
4002;DHT22;2015;48.670;9.060;2023-12-28T11:18:19;10.30;99.90
4002;DHT22;2015;48.670;9.060;2023-12-28T11:20:53;10.40;99.90
4002;DHT22;2015;48.670;9.060;2023-12-28T11:23:25;10.40;99.90
4002;DHT22;2015;48.670;9.060;2023-12-28T11:25:57;10.40;99.90
4002;DHT22;2015;48.670;9.060;2023-12-28T11:28:29;10.40;99.90
4002;DHT22;2015;48.670;9.060;2023-12-28T11:31:02;10.40;99.90
4002;DHT22;2015;48.670;9.060;2023-12-28T11:33:50;10.40;99.90
4002;DHT22;2015;48.670;9.060;2023-12-28T11:36:35;10.40;99.90
4002;DHT22;2015;48.670;9.060;2023-12-28T11:39:10;10.30;99.90
4002;DHT22;2015;48.670;9.060;2023-12-28T11:41:42;10.30;99.90
4002;DHT22;2015;48.670;9.060;2023-12-28T11:44:15;10.30;99.90
4002;DHT22;2015;48.670;9.060;2023-12-28T11:46:48;10.30;99.90
4002;DHT22;2015;48.670;9.060;2023-12-28T11:49:25;10.30;99.90
4002;DHT22;2015;48.670;9.060;2023-12-28T11:51:59;10.40;99.90
4002;DHT22;2015;48.670;9.060;2023-12-28T11:54:31;10.40;99.90
4002;DHT22;2015;48.670;9.060;2023-12-28T11:57:03;10.40;99.90
4002;DHT22;2015;48.670;9.060;2023-12-28T11:59:35;10.40;99.90
4002;DHT22;2015;48.670;9.060;2023-12-28T12:02:07;10.40;99.90
4002;DHT22;2015;48.670;9.060;2023-12-28T12:04:39;10.40;99.90
4002;DHT22;2015;48.670;9.060;2023-12-28T12:07:11;10.40;99.90
4002;DHT22;2015;48.670;9.060;2023-12-28T12:09:43;10.40;99.90
4002;DHT22;2015;48.670;9.060;2023-12-28T12:12:16;10.40;99.90
4002;DHT22;2015;48.670;9.060;2023-12-28T12:14:49;10.40;99.90
4002;DHT22;2015;48.670;9.060;2023-12-28T12:17:20;10.40;99.90
4002;DHT22;2015;48.670;9.060;2023-12-28T12:19:52;10.40;99.90
4002;DHT22;2015;48.670;9.060;2023-12-28T12:22:27;10.40;99.90
4002;DHT22;2015;48.670;9.060;2023-12-28T12:25:02;10.40;99.90
4002;DHT22;2015;48.670;9.060;2023-12-28T12:27:38;10.30;99.90
4002;DHT22;2015;48.670;9.060;2023-12-28T12:30:10;10.30;99.90
4002;DHT22;2015;48.670;9.060;2023-12-28T12:32:42;10.30;99.90
4002;DHT22;2015;48.670;9.060;2023-12-28T12:35:15;10.30;99.90
4002;DHT22;2015;48.670;9.060;2023-12-28T12:37:49;10.30;99.90
4002;DHT22;2015;48.670;9.060;2023-12-28T12:40:22;10.30;99.90
4002;DHT22;2015;48.670;9.060;2023-12-28T12:42:54;10.30;99.90
4002;DHT22;2015;48.670;9.060;2023-12-28T12:45:27;10.40;99.90
4002;DHT22;2015;48.670;9.060;2023-12-28T12:47:59;10.40;99.90
4002;DHT22;2015;48.670;9.060;2023-12-28T12:50:34;10.30;99.90
4002;DHT22;2015;48.670;9.060;2023-12-28T12:53:07;10.30;99.90
4002;DHT22;2015;48.670;9.060;2023-12-28T12:55:39;10.40;99.90
4002;DHT22;2015;48.670;9.060;2023-12-28T12:58:14;10.40;99.90
4002;DHT22;2015;48.670;9.060;2023-12-28T13:00:48;10.40;99.90
4002;DHT22;2015;48.670;9.060;2023-12-28T13:03:20;10.30;99.90
4002;DHT22;2015;48.670;9.060;2023-12-28T13:05:52;10.30;99.90
4002;DHT22;2015;48.670;9.060;2023-12-28T13:08:24;10.20;99.90
4002;DHT22;2015;48.670;9.060;2023-12-28T13:10:56;10.20;99.90
4002;DHT22;2015;48.670;9.060;2023-12-28T13:13:28;10.20;99.90
4002;DHT22;2015;48.670;9.060;2023-12-28T13:16:00;10.20;99.90
4002;DHT22;2015;48.670;9.060;2023-12-28T13:18:32;10.20;99.90
4002;DHT22;2015;48.670;9.060;2023-12-28T13:21:07;10.20;99.90
4002;DHT22;2015;48.670;9.060;2023-12-28T13:23:38;10.20;99.90
4002;DHT22;2015;48.670;9.060;2023-12-28T13:26:10;10.20;99.90
4002;DHT22;2015;48.670;9.060;2023-12-28T13:28:42;10.10;99.90
4002;DHT22;2015;48.670;9.060;2023-12-28T13:31:14;10.00;99.90
4002;DHT22;2015;48.670;9.060;2023-12-28T13:33:46;10.00;99.90
4002;DHT22;2015;48.670;9.060;2023-12-28T13:36:18;10.00;99.90
4002;DHT22;2015;48.670;9.060;2023-12-28T13:38:52;10.10;99.90
4002;DHT22;2015;48.670;9.060;2023-12-28T13:41:24;10.10;99.90
4002;DHT22;2015;48.670;9.060;2023-12-28T13:43:56;10.10;99.90
4002;DHT22;2015;48.670;9.060;2023-12-28T13:46:33;10.10;99.90
4002;DHT22;2015;48.670;9.060;2023-12-28T13:49:05;10.10;99.90
4002;DHT22;2015;48.670;9.060;2023-12-28T13:51:39;10.00;99.90
4002;DHT22;2015;48.670;9.060;2023-12-28T13:54:11;10.00;99.90
4002;DHT22;2015;48.670;9.060;2023-12-28T13:56:42;10.00;99.90
4002;DHT22;2015;48.670;9.060;2023-12-28T13:59:16;9.90;99.90
4002;DHT22;2015;48.670;9.060;2023-12-28T14:01:48;9.80;99.90
4002;DHT22;2015;48.670;9.060;2023-12-28T14:04:19;9.80;99.90
4002;DHT22;2015;48.670;9.060;2023-12-28T14:06:52;9.70;99.90
4002;DHT22;2015;48.670;9.060;2023-12-28T14:09:24;9.70;99.90
4002;DHT22;2015;48.670;9.060;2023-12-28T14:11:56;9.70;99.90
4002;DHT22;2015;48.670;9.060;2023-12-28T14:14:27;9.70;99.90
4002;DHT22;2015;48.670;9.060;2023-12-28T14:16:59;9.60;99.90
4002;DHT22;2015;48.670;9.060;2023-12-28T14:19:31;9.60;99.90
4002;DHT22;2015;48.670;9.060;2023-12-28T14:22:04;9.70;99.90
4002;DHT22;2015;48.670;9.060;2023-12-28T14:24:36;9.60;99.90
4002;DHT22;2015;48.670;9.060;2023-12-28T14:27:08;9.60;99.90
4002;DHT22;2015;48.670;9.060;2023-12-28T14:29:43;9.60;99.90
4002;DHT22;2015;48.670;9.060;2023-12-28T14:32:15;9.60;99.90
4002;DHT22;2015;48.670;9.060;2023-12-28T14:34:47;9.60;99.90
4002;DHT22;2015;48.670;9.060;2023-12-28T14:37:19;9.60;99.90
4002;DHT22;2015;48.670;9.060;2023-12-28T14:39:51;9.50;99.90
4002;DHT22;2015;48.670;9.060;2023-12-28T14:42:23;9.60;99.90
4002;DHT22;2015;48.670;9.060;2023-12-28T14:44:55;9.70;99.90
4002;DHT22;2015;48.670;9.060;2023-12-28T14:47:27;9.60;99.90
4002;DHT22;2015;48.670;9.060;2023-12-28T14:49:59;9.60;99.90
4002;DHT22;2015;48.670;9.060;2023-12-28T14:52:32;9.70;99.90
4002;DHT22;2015;48.670;9.060;2023-12-28T14:55:04;9.70;99.90
4002;DHT22;2015;48.670;9.060;2023-12-28T14:57:36;9.70;99.90
4002;DHT22;2015;48.670;9.060;2023-12-28T15:00:08;9.70;99.90
4002;DHT22;2015;48.670;9.060;2023-12-28T15:02:41;9.70;99.90
4002;DHT22;2015;48.670;9.060;2023-12-28T15:05:13;9.70;99.90
4002;DHT22;2015;48.670;9.060;2023-12-28T15:07:45;9.70;99.90
4002;DHT22;2015;48.670;9.060;2023-12-28T15:10:19;9.70;99.90
4002;DHT22;2015;48.670;9.060;2023-12-28T15:12:51;9.70;99.90
4002;DHT22;2015;48.670;9.060;2023-12-28T15:15:23;9.60;99.90
4002;DHT22;2015;48.670;9.060;2023-12-28T15:17:55;9.60;99.90
4002;DHT22;2015;48.670;9.060;2023-12-28T15:20:28;9.50;99.90
4002;DHT22;2015;48.670;9.060;2023-12-28T15:23:00;9.50;99.90
4002;DHT22;2015;48.670;9.060;2023-12-28T15:25:32;9.40;99.90
4002;DHT22;2015;48.670;9.060;2023-12-28T15:28:04;9.40;99.90
4002;DHT22;2015;48.670;9.060;2023-12-28T15:30:37;9.30;99.90
4002;DHT22;2015;48.670;9.060;2023-12-28T15:33:09;9.30;99.90
4002;DHT22;2015;48.670;9.060;2023-12-28T15:35:41;9.30;99.90
4002;DHT22;2015;48.670;9.060;2023-12-28T15:38:13;9.20;99.90
4002;DHT22;2015;48.670;9.060;2023-12-28T15:40:47;9.20;99.90
4002;DHT22;2015;48.670;9.060;2023-12-28T15:43:19;9.10;99.90
4002;DHT22;2015;48.670;9.060;2023-12-28T15:45:51;9.10;99.90
4002;DHT22;2015;48.670;9.060;2023-12-28T15:48:23;9.10;99.90
4002;DHT22;2015;48.670;9.060;2023-12-28T15:50:56;9.00;99.90
4002;DHT22;2015;48.670;9.060;2023-12-28T15:53:28;9.00;99.90
4002;DHT22;2015;48.670;9.060;2023-12-28T15:56:00;9.00;99.90
4002;DHT22;2015;48.670;9.060;2023-12-28T15:58:47;9.00;99.90
4002;DHT22;2015;48.670;9.060;2023-12-28T16:01:19;9.10;99.90
4002;DHT22;2015;48.670;9.060;2023-12-28T16:03:51;9.10;99.90
4002;DHT22;2015;48.670;9.060;2023-12-28T16:06:23;9.10;99.90
4002;DHT22;2015;48.670;9.060;2023-12-28T16:08:54;9.10;99.90
4002;DHT22;2015;48.670;9.060;2023-12-28T16:11:26;9.00;99.90
4002;DHT22;2015;48.670;9.060;2023-12-28T16:13:58;9.00;99.90
4002;DHT22;2015;48.670;9.060;2023-12-28T16:16:30;9.00;99.90
4002;DHT22;2015;48.670;9.060;2023-12-28T16:19:02;9.00;99.90
4002;DHT22;2015;48.670;9.060;2023-12-28T16:21:35;8.90;99.90
4002;DHT22;2015;48.670;9.060;2023-12-28T16:24:07;8.90;99.90
4002;DHT22;2015;48.670;9.060;2023-12-28T16:26:39;8.90;99.90
4002;DHT22;2015;48.670;9.060;2023-12-28T16:29:11;8.90;99.90
4002;DHT22;2015;48.670;9.060;2023-12-28T16:31:43;8.90;99.90
4002;DHT22;2015;48.670;9.060;2023-12-28T16:34:15;8.90;99.90
4002;DHT22;2015;48.670;9.060;2023-12-28T16:36:48;8.90;99.90
4002;DHT22;2015;48.670;9.060;2023-12-28T16:39:20;8.90;99.90
4002;DHT22;2015;48.670;9.060;2023-12-28T16:41:52;8.90;99.90
4002;DHT22;2015;48.670;9.060;2023-12-28T16:44:24;8.90;99.90
4002;DHT22;2015;48.670;9.060;2023-12-28T16:46:56;8.90;99.90
4002;DHT22;2015;48.670;9.060;2023-12-28T16:49:29;9.00;99.90
4002;DHT22;2015;48.670;9.060;2023-12-28T16:52:01;9.00;99.90